createdAt,value
2018-03-22T00:00:41.000Z,26.5
2018-03-22T00:01:41.000Z,26.5
2018-03-22T00:02:41.000Z,26.5
2018-03-22T00:03:41.000Z,26.6
2018-03-22T00:05:41.000Z,26.6
2018-03-22T00:06:41.000Z,26.5
2018-03-22T00:07:41.000Z,26.5
2018-03-22T00:08:41.000Z,26.6
2018-03-22T00:09:41.000Z,26.6
2018-03-22T00:11:41.000Z,26.6
2018-03-22T00:13:41.000Z,26.5
2018-03-22T00:15:41.000Z,26.5
2018-03-22T00:17:41.000Z,26.5
2018-03-22T00:18:41.000Z,26.5
2018-03-22T00:20:41.000Z,26.5
2018-03-22T00:21:41.000Z,26.5
2018-03-22T00:23:41.000Z,26.5
2018-03-22T00:25:41.000Z,26.5
2018-03-22T00:27:41.000Z,26.4
2018-03-22T00:29:41.000Z,26.3
2018-03-22T00:31:41.000Z,26.3
2018-03-22T00:32:41.000Z,26.3
2018-03-22T00:34:41.000Z,26.4
2018-03-22T00:36:41.000Z,26.3
2018-03-22T00:38:41.000Z,26.3
2018-03-22T00:40:41.000Z,26.3
2018-03-22T00:41:41.000Z,26.3
2018-03-22T00:43:41.000Z,26.4
2018-03-22T00:45:26.000Z,25.8
2018-03-22T00:47:41.000Z,26.2
2018-03-22T00:48:41.000Z,26.2
2018-03-22T00:50:26.000Z,26.3
2018-03-22T00:51:41.000Z,26.3
2018-03-22T00:53:41.000Z,26.2
2018-03-22T00:54:41.000Z,26.2
2018-03-22T00:56:41.000Z,26.2
2018-03-22T00:58:41.000Z,26.2
2018-03-22T00:59:41.000Z,26.2
2018-03-22T01:01:41.000Z,26.2
2018-03-22T01:03:41.000Z,26.2
2018-03-22T01:04:41.000Z,26.3
2018-03-22T01:06:41.000Z,26.4
2018-03-22T01:08:41.000Z,26.3
2018-03-22T01:09:41.000Z,26.3
2018-03-22T01:10:41.000Z,26.4
2018-03-22T01:12:41.000Z,26.4
2018-03-22T01:13:41.000Z,26.4
2018-03-22T01:14:41.000Z,26.5
2018-03-22T01:15:41.000Z,26.5
2018-03-22T01:16:41.000Z,26.6
2018-03-22T01:18:41.000Z,26.5
2018-03-22T01:20:41.000Z,26.5
2018-03-22T01:21:41.000Z,26.5
2018-03-22T01:23:41.000Z,26.5
2018-03-22T01:25:41.000Z,26.4
2018-03-22T01:27:41.000Z,26.4
2018-03-22T01:29:41.000Z,26.3
2018-03-22T01:30:41.000Z,26.3
2018-03-22T01:31:41.000Z,26.3
2018-03-22T01:33:41.000Z,26.3
2018-03-22T01:34:41.000Z,26.3
2018-03-22T01:36:41.000Z,26.3
2018-03-22T01:38:41.000Z,26.2
2018-03-22T01:40:41.000Z,26.2
2018-03-22T01:42:41.000Z,26.1
2018-03-22T01:43:41.000Z,26.2
2018-03-22T01:45:41.000Z,26.2
2018-03-22T01:47:41.000Z,26.2
2018-03-22T01:48:41.000Z,26.2
2018-03-22T01:50:41.000Z,26.2
2018-03-22T01:51:41.000Z,26.2
2018-03-22T01:52:41.000Z,26.3
2018-03-22T01:53:41.000Z,26.3
2018-03-22T01:55:41.000Z,26.3
2018-03-22T01:56:41.000Z,26.4
2018-03-22T01:58:41.000Z,26.4
2018-03-22T02:00:25.000Z,26.4
2018-03-22T02:01:41.000Z,26.4
2018-03-22T02:02:41.000Z,26.4
2018-03-22T02:04:25.000Z,26.4
2018-03-22T02:05:41.000Z,26.3
2018-03-22T02:07:41.000Z,26.3
2018-03-22T02:08:41.000Z,26.3
2018-03-22T02:10:41.000Z,26.4
2018-03-22T02:12:41.000Z,26.3
2018-03-22T02:13:41.000Z,26.3
2018-03-22T02:15:41.000Z,26.2
2018-03-22T02:17:41.000Z,26.2
2018-03-22T02:19:41.000Z,26
2018-03-22T02:21:41.000Z,26
2018-03-22T02:22:41.000Z,26
2018-03-22T02:24:41.000Z,26.1
2018-03-22T02:26:41.000Z,26.1
2018-03-22T02:27:41.000Z,26.2
2018-03-22T02:29:41.000Z,26.2
2018-03-22T02:30:41.000Z,26.2
2018-03-22T02:32:41.000Z,26.2
2018-03-22T02:33:41.000Z,26.3
2018-03-22T02:35:41.000Z,26.3
2018-03-22T02:37:41.000Z,26.2
2018-03-22T02:39:41.000Z,26.2
2018-03-22T02:40:41.000Z,26.2
2018-03-22T02:42:41.000Z,26.3
2018-03-22T02:43:41.000Z,26.3
2018-03-22T02:45:41.000Z,26.3
2018-03-22T02:46:41.000Z,26.3
2018-03-22T02:47:41.000Z,26.3
2018-03-22T02:49:41.000Z,26.3
2018-03-22T02:51:41.000Z,26.3
2018-03-22T02:53:41.000Z,26.3
2018-03-22T02:54:41.000Z,26.3
2018-03-22T02:55:41.000Z,26.3
2018-03-22T02:57:41.000Z,26.3
2018-03-22T02:58:41.000Z,26.2
2018-03-22T02:59:41.000Z,26.3
2018-03-22T03:01:41.000Z,26.2
2018-03-22T03:03:41.000Z,26.1
2018-03-22T03:05:41.000Z,26
2018-03-22T03:07:41.000Z,26
2018-03-22T03:08:41.000Z,26
2018-03-22T03:10:41.000Z,26.1
2018-03-22T03:11:41.000Z,26.1
2018-03-22T03:12:41.000Z,26.2
2018-03-22T03:14:41.000Z,26.3
2018-03-22T03:15:41.000Z,26.4
2018-03-22T03:17:41.000Z,26.4
2018-03-22T03:19:41.000Z,26.3
2018-03-22T03:21:41.000Z,26.2
2018-03-22T03:23:41.000Z,26.2
2018-03-22T03:24:41.000Z,26.2
2018-03-22T03:25:41.000Z,26.3
2018-03-22T03:27:41.000Z,26.3
2018-03-22T03:29:41.000Z,26.3
2018-03-22T03:30:41.000Z,26.3
2018-03-22T03:31:41.000Z,26.3
2018-03-22T03:32:41.000Z,26.4
2018-03-22T03:34:41.000Z,26.5
2018-03-22T03:35:41.000Z,26.5
2018-03-22T03:36:41.000Z,26.5
2018-03-22T03:38:41.000Z,26.5
2018-03-22T03:40:26.000Z,26.4
2018-03-22T03:41:41.000Z,26.4
2018-03-22T03:42:41.000Z,26.4
2018-03-22T03:43:41.000Z,26.4
2018-03-22T03:45:41.000Z,26.4
2018-03-22T03:46:41.000Z,26.4
2018-03-22T03:47:41.000Z,26.4
2018-03-22T03:49:26.000Z,25.7
2018-03-22T03:50:41.000Z,26.4
2018-03-22T03:52:41.000Z,26.4
2018-03-22T03:54:26.000Z,26.3
2018-03-22T03:55:41.000Z,26.3
2018-03-22T03:56:41.000Z,26.3
2018-03-22T03:58:41.000Z,26.3
2018-03-22T03:59:41.000Z,26.3
2018-03-22T04:01:41.000Z,26.2
2018-03-22T04:03:41.000Z,26.2
2018-03-22T04:04:41.000Z,26.2
2018-03-22T04:06:41.000Z,26.2
2018-03-22T04:08:41.000Z,26.2
2018-03-22T04:10:41.000Z,26.2
2018-03-22T04:12:41.000Z,26.1
2018-03-22T04:14:41.000Z,26.1
2018-03-22T04:16:41.000Z,26.1
2018-03-22T04:17:41.000Z,26.1
2018-03-22T04:19:41.000Z,26
2018-03-22T04:21:41.000Z,26.1
2018-03-22T04:22:41.000Z,26.1
2018-03-22T04:24:41.000Z,26.2
2018-03-22T04:25:41.000Z,26.2
2018-03-22T04:27:41.000Z,26.2
2018-03-22T04:29:26.000Z,26.2
2018-03-22T04:30:41.000Z,26.1
2018-03-22T04:32:41.000Z,26.1
2018-03-22T04:33:41.000Z,26.1
2018-03-22T04:34:41.000Z,26.1
2018-03-22T04:36:26.000Z,26.2
2018-03-22T04:37:41.000Z,26.1
2018-03-22T04:39:41.000Z,26.2
2018-03-22T04:40:41.000Z,26.2
2018-03-22T04:42:41.000Z,26.2
2018-03-22T04:44:26.000Z,26.2
2018-03-22T04:45:41.000Z,26.1
2018-03-22T04:47:41.000Z,26.1
2018-03-22T04:49:41.000Z,26.1
2018-03-22T04:50:41.000Z,26.2
2018-03-22T04:52:41.000Z,26.2
2018-03-22T04:53:41.000Z,26.2
2018-03-22T04:54:41.000Z,26.3
2018-03-22T04:56:41.000Z,26.3
2018-03-22T04:57:41.000Z,26.3
2018-03-22T04:58:41.000Z,26.3
2018-03-22T05:00:41.000Z,26.4
2018-03-22T05:02:41.000Z,26.4
2018-03-22T05:03:41.000Z,26.4
2018-03-22T05:05:41.000Z,26.4
2018-03-22T05:07:41.000Z,26.3
2018-03-22T05:08:41.000Z,26.3
2018-03-22T05:09:41.000Z,26.3
2018-03-22T05:11:41.000Z,26.3
2018-03-22T05:12:41.000Z,26.3
2018-03-22T05:14:41.000Z,26.3
2018-03-22T05:16:41.000Z,26.3
2018-03-22T05:18:41.000Z,26.3
2018-03-22T05:20:26.000Z,26.2
2018-03-22T05:21:41.000Z,26.2
2018-03-22T05:23:41.000Z,26.1
2018-03-22T05:24:41.000Z,26.1
2018-03-22T05:25:41.000Z,26.1
2018-03-22T05:27:41.000Z,26.1
2018-03-22T05:28:41.000Z,26.1
2018-03-22T05:30:41.000Z,26.1
2018-03-22T05:32:41.000Z,26.1
2018-03-22T05:34:41.000Z,26.1
2018-03-22T05:36:26.000Z,26.1
2018-03-22T05:37:41.000Z,26.1
2018-03-22T05:39:41.000Z,26
2018-03-22T05:40:41.000Z,26
2018-03-22T05:42:41.000Z,26
2018-03-22T05:43:41.000Z,26.1
2018-03-22T05:45:41.000Z,26.2
2018-03-22T05:46:41.000Z,26.2
2018-03-22T05:48:41.000Z,26.2
2018-03-22T05:50:41.000Z,26.1
2018-03-22T05:51:41.000Z,26.1
2018-03-22T05:53:41.000Z,26.2
2018-03-22T05:55:41.000Z,26.2
2018-03-22T05:56:41.000Z,26.2
2018-03-22T05:57:41.000Z,26.2
2018-03-22T05:59:41.000Z,26.3
2018-03-22T06:01:41.000Z,26.2
2018-03-22T06:03:41.000Z,26.2
2018-03-22T06:04:41.000Z,26.2
2018-03-22T06:06:41.000Z,26.2
2018-03-22T06:08:26.000Z,26.2
2018-03-22T06:09:41.000Z,26.2
2018-03-22T06:11:41.000Z,26.2
2018-03-22T06:12:41.000Z,26.2
2018-03-22T06:14:41.000Z,26.3
2018-03-22T06:15:41.000Z,26.3
2018-03-22T06:16:41.000Z,26.3
2018-03-22T06:18:41.000Z,26.4
2018-03-22T06:19:41.000Z,26.4
2018-03-22T06:21:26.000Z,26.4
2018-03-22T06:22:41.000Z,26.4
2018-03-22T06:24:41.000Z,26.4
2018-03-22T06:25:41.000Z,26.4
2018-03-22T06:26:41.000Z,26.4
2018-03-22T06:27:41.000Z,26.4
2018-03-22T06:29:41.000Z,26.5
2018-03-22T06:30:41.000Z,26.5
2018-03-22T06:32:41.000Z,26.4
2018-03-22T06:34:41.000Z,26.3
2018-03-22T06:35:41.000Z,26.3
2018-03-22T06:37:41.000Z,26.4
2018-03-22T06:39:41.000Z,26.3
2018-03-22T06:41:41.000Z,26.3
2018-03-22T06:42:41.000Z,26.3
2018-03-22T06:44:41.000Z,26
2018-03-22T06:45:41.000Z,25.6
2018-03-22T06:47:41.000Z,24.7
2018-03-22T06:49:41.000Z,23.9
2018-03-22T06:50:41.000Z,23.5
2018-03-22T06:51:41.000Z,23.2
2018-03-22T06:53:41.000Z,22.8
2018-03-22T06:55:41.000Z,22.4
2018-03-22T06:57:41.000Z,22
2018-03-22T06:58:41.000Z,21.8
2018-03-22T06:59:41.000Z,21.7
2018-03-22T07:01:41.000Z,21.5
2018-03-22T07:03:41.000Z,21.3
2018-03-22T07:05:41.000Z,21.1
2018-03-22T07:07:41.000Z,21
2018-03-22T07:09:26.000Z,20.9
2018-03-22T07:10:41.000Z,20.9
2018-03-22T07:11:41.000Z,20.9
2018-03-22T07:13:41.000Z,20.8
2018-03-22T07:15:41.000Z,20.9
2018-03-22T07:17:41.000Z,21.2
2018-03-22T07:19:41.000Z,21.7
2018-03-22T07:21:41.000Z,22.2
2018-03-22T07:22:41.000Z,22.5
2018-03-22T07:23:41.000Z,22.8
2018-03-22T07:25:40.000Z,23.3
2018-03-22T07:27:40.000Z,23.6
2018-03-22T07:28:40.000Z,23.8
2018-03-22T07:29:40.000Z,23.9
2018-03-22T07:31:40.000Z,24.2
2018-03-22T07:32:40.000Z,24.3
2018-03-22T07:33:40.000Z,24.5
2018-03-22T07:35:40.000Z,24.7
2018-03-22T07:36:40.000Z,24.9
2018-03-22T07:37:40.000Z,25
2018-03-22T07:38:40.000Z,25.1
2018-03-22T07:40:25.000Z,25.3
2018-03-22T07:41:40.000Z,25.3
2018-03-22T07:43:40.000Z,25.4
2018-03-22T07:45:40.000Z,25.5
2018-03-22T07:47:25.000Z,25.5
2018-03-22T07:48:40.000Z,25.5
2018-03-22T07:50:40.000Z,25.6
2018-03-22T07:52:40.000Z,25.6
2018-03-22T07:53:40.000Z,25.7
2018-03-22T07:55:25.000Z,25.8
2018-03-22T07:56:40.000Z,25.8
2018-03-22T07:58:40.000Z,25.9
2018-03-22T08:00:40.000Z,26
2018-03-22T08:02:40.000Z,26.1
2018-03-22T08:04:40.000Z,26.1
2018-03-22T08:06:40.000Z,26.1
2018-03-22T08:08:40.000Z,26.2
2018-03-22T08:10:25.000Z,26.3
2018-03-22T08:11:40.000Z,26.3
2018-03-22T08:12:40.000Z,26.3
2018-03-22T08:13:40.000Z,26.4
2018-03-22T08:14:40.000Z,26.5
2018-03-22T08:15:40.000Z,26.6
2018-03-22T08:17:40.000Z,26.7
2018-03-22T08:18:40.000Z,26.8
2018-03-22T08:19:40.000Z,26.8
2018-03-22T08:20:40.000Z,26.9
2018-03-22T08:22:25.000Z,26.9
2018-03-22T08:23:40.000Z,26.9
2018-03-22T08:24:40.000Z,26.9
2018-03-22T08:26:40.000Z,26.8
2018-03-22T08:28:40.000Z,26.8
2018-03-22T08:29:40.000Z,26.8
2018-03-22T08:31:40.000Z,26.9
2018-03-22T08:32:40.000Z,27
2018-03-22T08:34:40.000Z,27
2018-03-22T08:35:40.000Z,27
2018-03-22T08:36:40.000Z,27.1
2018-03-22T08:37:40.000Z,27.2
2018-03-22T08:38:40.000Z,27.2
2018-03-22T08:40:40.000Z,27.3
2018-03-22T08:41:40.000Z,27.3
2018-03-22T08:43:40.000Z,27.3
2018-03-22T08:44:40.000Z,27.3
2018-03-22T08:45:40.000Z,27.4
2018-03-22T08:47:40.000Z,27.4
2018-03-22T08:48:40.000Z,27.4
2018-03-22T08:50:40.000Z,27.4
2018-03-22T08:51:40.000Z,27.4
2018-03-22T08:52:40.000Z,27.5
2018-03-22T08:53:40.000Z,27.5
2018-03-22T08:55:40.000Z,27.5
2018-03-22T08:57:40.000Z,27.5
2018-03-22T08:58:40.000Z,27.5
2018-03-22T08:59:40.000Z,27.5
2018-03-22T09:01:40.000Z,27.4
2018-03-22T09:02:40.000Z,27.4
2018-03-22T09:04:40.000Z,27.4
2018-03-22T09:05:40.000Z,27.5
2018-03-22T09:07:40.000Z,27.5
2018-03-22T09:09:40.000Z,27.5
2018-03-22T09:10:40.000Z,27.5
2018-03-22T09:12:40.000Z,27.5
2018-03-22T09:13:40.000Z,27.5
2018-03-22T09:14:40.000Z,27.6
2018-03-22T09:16:40.000Z,27.6
2018-03-22T09:18:40.000Z,27.6
2018-03-22T09:20:40.000Z,27.6
2018-03-22T09:21:40.000Z,27.6
2018-03-22T09:22:40.000Z,27.6
2018-03-22T09:24:40.000Z,27.7
2018-03-22T09:26:25.000Z,27.7
2018-03-22T09:27:40.000Z,27.6
2018-03-22T09:29:40.000Z,26.8
2018-03-22T09:30:40.000Z,26.5
2018-03-22T09:32:26.000Z,26
2018-03-22T09:33:41.000Z,25.7
2018-03-22T09:34:41.000Z,25.5
2018-03-22T09:35:41.000Z,25.4
2018-03-22T09:37:41.000Z,25.1
2018-03-22T09:38:41.000Z,24.9
2018-03-22T09:40:41.000Z,24.5
2018-03-22T09:41:41.000Z,24.3
2018-03-22T09:43:41.000Z,24
2018-03-22T09:45:26.000Z,23.7
2018-03-22T09:46:41.000Z,23.5
2018-03-22T09:48:41.000Z,23.2
2018-03-22T09:50:41.000Z,23.1
2018-03-22T09:52:41.000Z,22.9
2018-03-22T09:53:41.000Z,22.9
2018-03-22T09:55:41.000Z,22.7
2018-03-22T09:57:41.000Z,22.3
2018-03-22T09:58:41.000Z,22.1
2018-03-22T10:00:41.000Z,21.9
2018-03-22T10:02:41.000Z,21.7
2018-03-22T10:04:41.000Z,21.6
2018-03-22T10:06:41.000Z,21.7
2018-03-22T10:07:41.000Z,22
2018-03-22T10:08:41.000Z,22.2
2018-03-22T10:10:41.000Z,22.8
2018-03-22T10:11:41.000Z,23.1
2018-03-22T10:13:26.000Z,23.6
2018-03-22T10:14:41.000Z,23.9
2018-03-22T10:15:41.000Z,24.1
2018-03-22T10:16:41.000Z,24.3
2018-03-22T10:18:41.000Z,24.7
2018-03-22T10:20:26.000Z,25
2018-03-22T10:21:41.000Z,25
2018-03-22T10:23:41.000Z,25.2
2018-03-22T10:25:41.000Z,25.4
2018-03-22T10:27:26.000Z,25.5
2018-03-22T10:28:41.000Z,25.6
2018-03-22T10:30:41.000Z,25.7
2018-03-22T10:31:41.000Z,25.8
2018-03-22T10:33:26.000Z,26
2018-03-22T10:34:41.000Z,26
2018-03-22T10:36:41.000Z,26.2
2018-03-22T10:38:41.000Z,26.3
2018-03-22T10:40:41.000Z,26.4
2018-03-22T10:42:41.000Z,26.4
2018-03-22T10:44:41.000Z,26.5
2018-03-22T10:46:41.000Z,26.5
2018-03-22T10:47:41.000Z,26.6
2018-03-22T10:49:41.000Z,26.7
2018-03-22T10:51:41.000Z,26.8
2018-03-22T10:53:41.000Z,26.8
2018-03-22T10:55:41.000Z,26.9
2018-03-22T10:56:41.000Z,26.9
2018-03-22T10:57:41.000Z,27
2018-03-22T10:58:41.000Z,27.1
2018-03-22T11:00:41.000Z,27.2
2018-03-22T11:01:41.000Z,27.2
2018-03-22T11:03:41.000Z,27.3
2018-03-22T11:05:41.000Z,27.3
2018-03-22T11:06:41.000Z,27.3
2018-03-22T11:08:41.000Z,27.4
2018-03-22T11:09:41.000Z,27.4
2018-03-22T11:11:41.000Z,27.5
2018-03-22T11:13:41.000Z,27.5
2018-03-22T11:15:25.000Z,27.6
2018-03-22T11:16:41.000Z,27.5
2018-03-22T11:18:41.000Z,27.6
2018-03-22T11:20:41.000Z,27.6
2018-03-22T11:22:41.000Z,27.6
2018-03-22T11:23:41.000Z,27.6
2018-03-22T11:25:41.000Z,27.6
2018-03-22T11:27:41.000Z,27.6
2018-03-22T11:29:41.000Z,27.7
2018-03-22T11:31:41.000Z,27.7
2018-03-22T11:32:41.000Z,27.8
2018-03-22T11:33:41.000Z,27.9
2018-03-22T11:34:41.000Z,28
2018-03-22T11:35:41.000Z,28
2018-03-22T11:36:41.000Z,28.1
2018-03-22T11:38:41.000Z,28.2
2018-03-22T11:40:41.000Z,28.2
2018-03-22T11:42:41.000Z,28.1
2018-03-22T11:44:41.000Z,28.1
2018-03-22T11:45:41.000Z,28.1
2018-03-22T11:47:41.000Z,28.1
2018-03-22T11:49:41.000Z,28.1
2018-03-22T11:51:41.000Z,28.1
2018-03-22T11:53:26.000Z,28.1
2018-03-22T11:54:41.000Z,28.1
2018-03-22T11:56:26.000Z,28.2
2018-03-22T11:57:41.000Z,28.1
2018-03-22T11:58:41.000Z,28.2
2018-03-22T12:00:41.000Z,28.3
2018-03-22T12:01:41.000Z,28.3
2018-03-22T12:03:41.000Z,28.3
2018-03-22T12:05:41.000Z,28.3
2018-03-22T12:06:41.000Z,28.3
2018-03-22T12:08:26.000Z,28.4
2018-03-22T12:09:41.000Z,28.4
2018-03-22T12:11:41.000Z,28.3
2018-03-22T12:13:41.000Z,28.3
2018-03-22T12:14:41.000Z,28.3
2018-03-22T12:16:26.000Z,28.5
2018-03-22T12:17:41.000Z,28.5
2018-03-22T12:19:41.000Z,28.5
2018-03-22T12:20:41.000Z,28.5
2018-03-22T12:22:26.000Z,28.6
2018-03-22T12:23:41.000Z,28.7
2018-03-22T12:25:41.000Z,28.6
2018-03-22T12:27:41.000Z,28.6
2018-03-22T12:29:41.000Z,28.6
2018-03-22T12:30:41.000Z,28.6
2018-03-22T12:31:41.000Z,28.6
2018-03-22T12:33:41.000Z,28.6
2018-03-22T12:34:41.000Z,28.5
2018-03-22T12:35:41.000Z,28.6
2018-03-22T12:36:41.000Z,28.6
2018-03-22T12:37:41.000Z,28.7
2018-03-22T12:39:41.000Z,28.7
2018-03-22T12:41:41.000Z,28.6
2018-03-22T12:43:41.000Z,28.6
2018-03-22T12:44:41.000Z,28.5
2018-03-22T12:46:41.000Z,28.5
2018-03-22T12:47:41.000Z,28.6
2018-03-22T12:49:41.000Z,28.6
2018-03-22T12:50:41.000Z,28.6
2018-03-22T12:52:41.000Z,28.6
2018-03-22T12:54:41.000Z,28.5
2018-03-22T12:55:41.000Z,28.5
2018-03-22T12:56:41.000Z,28.5
2018-03-22T12:57:41.000Z,28.6
2018-03-22T12:58:41.000Z,28.6
2018-03-22T13:00:41.000Z,28.7
2018-03-22T13:02:41.000Z,28.5
2018-03-22T13:04:41.000Z,28.5
2018-03-22T13:05:41.000Z,28.5
2018-03-22T13:07:41.000Z,28.4
2018-03-22T13:08:41.000Z,28.4
2018-03-22T13:10:41.000Z,28.4
2018-03-22T13:11:41.000Z,28.4
2018-03-22T13:12:41.000Z,28.4
2018-03-22T13:14:41.000Z,28.5
2018-03-22T13:15:41.000Z,28.5
2018-03-22T13:17:41.000Z,28.6
2018-03-22T13:18:41.000Z,28.5
2018-03-22T13:19:41.000Z,28.6
2018-03-22T13:21:41.000Z,28.6
2018-03-22T13:23:41.000Z,28.5
2018-03-22T13:25:41.000Z,28.4
2018-03-22T13:26:41.000Z,28.4
2018-03-22T13:27:41.000Z,28.5
2018-03-22T13:28:41.000Z,28.5
2018-03-22T13:30:41.000Z,28.5
2018-03-22T13:32:26.000Z,28.5
2018-03-22T13:33:41.000Z,28.4
2018-03-22T13:35:41.000Z,28.3
2018-03-22T13:37:41.000Z,28.3
2018-03-22T13:39:41.000Z,28.3
2018-03-22T13:40:41.000Z,28.3
2018-03-22T13:42:26.000Z,28.3
2018-03-22T13:43:41.000Z,28.3
2018-03-22T13:44:41.000Z,28.3
2018-03-22T13:46:25.000Z,28.4
2018-03-22T13:47:40.000Z,28.4
2018-03-22T13:48:40.000Z,28.4
2018-03-22T13:50:40.000Z,28.5
2018-03-22T13:51:40.000Z,28.5
2018-03-22T13:53:40.000Z,28.5
2018-03-22T13:55:40.000Z,28.4
2018-03-22T13:57:40.000Z,28.4
2018-03-22T13:58:40.000Z,28.4
2018-03-22T14:00:40.000Z,28.5
2018-03-22T14:02:40.000Z,28.5
2018-03-22T14:03:40.000Z,28.6
2018-03-22T14:05:40.000Z,28.7
2018-03-22T14:06:40.000Z,28.7
2018-03-22T14:08:40.000Z,28.8
2018-03-22T14:10:40.000Z,28.9
2018-03-22T14:11:40.000Z,28.9
2018-03-22T14:13:40.000Z,29
2018-03-22T14:15:40.000Z,29
2018-03-22T14:16:40.000Z,29
2018-03-22T14:18:25.000Z,29
2018-03-22T14:19:40.000Z,29
2018-03-22T14:20:40.000Z,29
2018-03-22T14:21:40.000Z,29
2018-03-22T14:22:40.000Z,29.1
2018-03-22T14:24:25.000Z,29.2
2018-03-22T14:25:40.000Z,29.1
2018-03-22T14:26:40.000Z,29.1
2018-03-22T14:28:40.000Z,29.1
2018-03-22T14:30:40.000Z,29.1
2018-03-22T14:32:40.000Z,29
2018-03-22T14:34:40.000Z,28.9
2018-03-22T14:36:40.000Z,28.9
2018-03-22T14:38:40.000Z,28.8
2018-03-22T14:40:25.000Z,28.8
2018-03-22T14:41:40.000Z,28.8
2018-03-22T14:43:40.000Z,28.8
2018-03-22T14:45:40.000Z,28.8
2018-03-22T14:47:40.000Z,28.8
2018-03-22T14:48:40.000Z,28.8
2018-03-22T14:50:41.000Z,28.9
2018-03-22T14:51:41.000Z,29
2018-03-22T14:53:41.000Z,29
2018-03-22T14:55:41.000Z,29
2018-03-22T14:57:41.000Z,28.9
2018-03-22T14:59:26.000Z,28.8
2018-03-22T15:00:41.000Z,28.8
2018-03-22T15:02:41.000Z,28.8
2018-03-22T15:03:41.000Z,28.8
2018-03-22T15:05:41.000Z,28.9
2018-03-22T15:07:41.000Z,28.9
2018-03-22T15:09:41.000Z,28.8
2018-03-22T15:10:41.000Z,28.8
2018-03-22T15:12:41.000Z,28.9
2018-03-22T15:14:41.000Z,28.8
2018-03-22T15:16:41.000Z,28.8
2018-03-22T15:17:41.000Z,28.8
2018-03-22T15:19:26.000Z,28.8
2018-03-22T15:20:41.000Z,28.8
2018-03-22T15:22:41.000Z,28.8
2018-03-22T15:24:41.000Z,28.8
2018-03-22T15:25:41.000Z,28.9
2018-03-22T15:27:41.000Z,28.9
2018-03-22T15:29:41.000Z,28.9
2018-03-22T15:31:26.000Z,28.8
2018-03-22T15:32:41.000Z,28.8
2018-03-22T15:34:41.000Z,28.8
2018-03-22T15:35:41.000Z,28.8
2018-03-22T15:37:41.000Z,28.9
2018-03-22T15:38:41.000Z,28.9
2018-03-22T15:40:26.000Z,28.9
2018-03-22T15:41:41.000Z,28.9
2018-03-22T15:43:41.000Z,28.9
2018-03-22T15:44:41.000Z,28.9
2018-03-22T15:45:41.000Z,28.9
2018-03-22T15:47:41.000Z,29
2018-03-22T15:48:41.000Z,29
2018-03-22T15:49:41.000Z,29
2018-03-22T15:50:41.000Z,29
2018-03-22T15:51:41.000Z,29
2018-03-22T15:53:41.000Z,29
2018-03-22T15:55:41.000Z,28.9
2018-03-22T15:56:41.000Z,28.8
2018-03-22T15:57:41.000Z,28.9
2018-03-22T15:58:41.000Z,28.9
2018-03-22T16:02:27.000Z,28.4
2018-03-22T16:03:27.000Z,28.4
2018-03-22T16:05:27.000Z,28.4
2018-03-22T16:06:27.000Z,28.4
2018-03-22T16:07:27.000Z,28.4
2018-03-22T16:09:11.000Z,28.5
2018-03-22T16:10:27.000Z,28.4
2018-03-22T16:11:27.000Z,28.5
2018-03-22T16:12:27.000Z,28.5
2018-03-22T16:13:27.000Z,28.6
2018-03-22T16:14:27.000Z,28.6
2018-03-22T16:16:27.000Z,28.7
2018-03-22T16:18:11.000Z,28.7
2018-03-22T16:19:27.000Z,28.7
2018-03-22T16:20:27.000Z,28.7
2018-03-22T16:21:27.000Z,28.7
2018-03-22T16:22:27.000Z,28.7
2018-03-22T16:24:27.000Z,28.7
2018-03-22T16:25:27.000Z,28.7
2018-03-22T16:27:27.000Z,28.7
2018-03-22T16:29:27.000Z,28.6
2018-03-22T16:30:27.000Z,28.6
2018-03-22T16:31:27.000Z,28.6
2018-03-22T16:33:27.000Z,28.6
2018-03-22T16:35:27.000Z,28.6
2018-03-22T16:37:11.000Z,28.6
2018-03-22T16:38:27.000Z,28.6
2018-03-22T16:39:27.000Z,28.6
2018-03-22T16:40:27.000Z,28.6
2018-03-22T16:41:27.000Z,28.7
2018-03-22T16:43:27.000Z,28.7
2018-03-22T16:45:27.000Z,28.6
2018-03-22T16:46:27.000Z,28.6
2018-03-22T16:48:27.000Z,28.5
2018-03-22T16:49:27.000Z,28.5
2018-03-22T16:50:27.000Z,28.5
2018-03-22T16:52:27.000Z,28.5
2018-03-22T16:54:27.000Z,28.4
2018-03-22T16:56:27.000Z,28.3
2018-03-22T16:57:27.000Z,28.2
2018-03-22T16:58:27.000Z,28.3
2018-03-22T17:00:27.000Z,28.4
2018-03-22T17:01:27.000Z,28.4
2018-03-22T17:03:27.000Z,28.4
2018-03-22T17:05:27.000Z,28.3
2018-03-22T17:06:27.000Z,28.3
2018-03-22T17:07:27.000Z,28.4
2018-03-22T17:08:27.000Z,28.4
2018-03-22T17:10:12.000Z,28.5
2018-03-22T17:11:27.000Z,28.5
2018-03-22T17:12:27.000Z,28.5
2018-03-22T17:13:27.000Z,28.5
2018-03-22T17:15:27.000Z,28.5
2018-03-22T17:16:27.000Z,28.5
2018-03-22T17:17:27.000Z,28.6
2018-03-22T17:19:27.000Z,28.6
2018-03-22T17:20:27.000Z,28.6
2018-03-22T17:22:27.000Z,28.5
2018-03-22T17:23:27.000Z,28.5
2018-03-22T17:24:27.000Z,28.5
2018-03-22T17:25:27.000Z,28.5
2018-03-22T17:26:27.000Z,28.5
2018-03-22T17:27:27.000Z,28.6
2018-03-22T17:28:27.000Z,28.6
2018-03-22T17:29:27.000Z,28.6
2018-03-22T17:31:27.000Z,28.5
2018-03-22T17:33:27.000Z,28.3
2018-03-22T17:34:27.000Z,28.3
2018-03-22T17:36:27.000Z,28.3
2018-03-22T17:38:27.000Z,28.3
2018-03-22T17:39:27.000Z,28.3
2018-03-22T17:40:27.000Z,28.3
2018-03-22T17:42:27.000Z,28.3
2018-03-22T17:43:27.000Z,28.3
2018-03-22T17:45:27.000Z,28.3
2018-03-22T17:47:27.000Z,28.2
2018-03-22T17:49:27.000Z,28.1
2018-03-22T17:51:27.000Z,28
2018-03-22T17:53:27.000Z,27.9
2018-03-22T17:54:27.000Z,27.9
2018-03-22T17:55:27.000Z,28
2018-03-22T17:57:27.000Z,28
2018-03-22T17:59:27.000Z,28
2018-03-22T18:01:27.000Z,28
2018-03-22T18:03:27.000Z,28
2018-03-22T18:04:27.000Z,28
2018-03-22T18:05:27.000Z,28
2018-03-22T18:06:27.000Z,28.1
2018-03-22T18:08:27.000Z,28.2
2018-03-22T18:10:27.000Z,28.2
2018-03-22T18:12:12.000Z,28.2
2018-03-22T18:13:27.000Z,28.1
2018-03-22T18:14:27.000Z,28.1
2018-03-22T18:15:27.000Z,28.2
2018-03-22T18:17:27.000Z,28.2
2018-03-22T18:19:27.000Z,28.1
2018-03-22T18:21:27.000Z,28.1
2018-03-22T18:22:27.000Z,28.1
2018-03-22T18:23:27.000Z,28.1
2018-03-22T18:25:27.000Z,28.2
2018-03-22T18:26:27.000Z,28.2
2018-03-22T18:28:27.000Z,28.2
2018-03-22T18:30:27.000Z,28.1
2018-03-22T18:31:27.000Z,28.1
2018-03-22T18:33:27.000Z,28.1
2018-03-22T18:35:27.000Z,28.1
2018-03-22T18:36:27.000Z,28.1
2018-03-22T18:37:27.000Z,28.1
2018-03-22T18:39:27.000Z,28.1
2018-03-22T18:41:12.000Z,28.1
2018-03-22T18:42:27.000Z,28
2018-03-22T18:43:27.000Z,28
2018-03-22T18:45:27.000Z,28.1
2018-03-22T18:47:27.000Z,28.1
2018-03-22T18:49:27.000Z,28
2018-03-22T18:50:27.000Z,28
2018-03-22T18:52:27.000Z,28
2018-03-22T18:53:27.000Z,28
2018-03-22T18:55:27.000Z,28
2018-03-22T18:57:27.000Z,28
2018-03-22T18:59:27.000Z,28
2018-03-22T19:00:27.000Z,28
2018-03-22T19:02:27.000Z,28
2018-03-22T19:04:27.000Z,28
2018-03-22T19:06:27.000Z,27.9
2018-03-22T19:08:27.000Z,27.9
2018-03-22T19:09:27.000Z,27.9
2018-03-22T19:11:27.000Z,27.9
2018-03-22T19:13:27.000Z,27.8
2018-03-22T19:15:27.000Z,27.8
2018-03-22T19:16:27.000Z,27.9
2018-03-22T19:18:27.000Z,27.9
2018-03-22T19:19:27.000Z,27.9
2018-03-22T19:21:27.000Z,28
2018-03-22T19:22:27.000Z,28
2018-03-22T19:23:27.000Z,28
2018-03-22T19:25:27.000Z,28
2018-03-22T19:27:27.000Z,28
2018-03-22T19:28:27.000Z,27.9
2018-03-22T19:30:27.000Z,27.9
2018-03-22T19:32:27.000Z,27.8
2018-03-22T19:33:27.000Z,27.9
2018-03-22T19:35:27.000Z,27.9
2018-03-22T19:36:27.000Z,27.9
2018-03-22T19:38:27.000Z,27.9
2018-03-22T19:40:27.000Z,27.9
2018-03-22T19:41:27.000Z,27.9
2018-03-22T19:42:27.000Z,28
2018-03-22T19:44:27.000Z,28
2018-03-22T19:46:27.000Z,27.9
2018-03-22T19:48:27.000Z,27.9
2018-03-22T19:49:27.000Z,27.9
2018-03-22T19:50:27.000Z,27.9
2018-03-22T19:52:27.000Z,27.8
2018-03-22T19:54:27.000Z,27.8
2018-03-22T19:55:27.000Z,27.8
2018-03-22T19:57:27.000Z,27.8
2018-03-22T19:58:27.000Z,27.8
2018-03-22T20:00:27.000Z,27.8
2018-03-22T20:04:13.000Z,27.3
2018-03-22T20:06:13.000Z,27.3
2018-03-22T20:07:13.000Z,27.4
2018-03-22T20:09:12.000Z,27.5
2018-03-22T20:10:57.000Z,27.5
2018-03-22T20:12:12.000Z,27.5
2018-03-22T20:13:12.000Z,27.5
2018-03-22T20:14:12.000Z,27.6
2018-03-22T20:16:12.000Z,27.7
2018-03-22T20:17:12.000Z,27.7
2018-03-22T20:19:12.000Z,27.8
2018-03-22T20:21:12.000Z,27.7
2018-03-22T20:23:12.000Z,27.6
2018-03-22T20:24:12.000Z,27.6
2018-03-22T20:25:12.000Z,27.7
2018-03-22T20:26:12.000Z,27.7
2018-03-22T20:28:12.000Z,27.7
2018-03-22T20:29:12.000Z,27.7
2018-03-22T20:30:12.000Z,27.7
2018-03-22T20:32:12.000Z,27.7
2018-03-22T20:33:12.000Z,27.7
2018-03-22T20:35:12.000Z,27.6
2018-03-22T20:36:12.000Z,27.6
2018-03-22T20:38:12.000Z,27.7
2018-03-22T20:39:12.000Z,27.7
2018-03-22T20:40:12.000Z,27.7
2018-03-22T20:41:57.000Z,27.7
2018-03-22T20:43:12.000Z,27.7
2018-03-22T20:44:12.000Z,27.7